TimeAKST,TemperatureF,Dew PointF,Humidity,Sea Level PressureIn,VisibilityMPH,Wind Direction,Wind SpeedMPH,Gust SpeedMPH,PrecipitationIn,Events,Conditions,WindDirDegrees,DateUTC
12:53 AM,12.0,3.0,67,30.30,10.0,Calm,Calm,-,N/A,,Mostly Cloudy,0,2014-02-11 09:53:00
1:53 AM,8.1,1.9,76,30.29,10.0,Calm,Calm,-,N/A,,Scattered Clouds,0,2014-02-11 10:53:00
2:53 AM,12.9,6.1,74,30.29,10.0,NNW,3.5,-,N/A,,Partly Cloudy,330,2014-02-11 11:53:00
3:53 AM,12.9,3.9,67,30.30,10.0,NNW,16.1,-,N/A,,Partly Cloudy,340,2014-02-11 12:53:00
4:53 AM,10.0,-0.0,64,30.28,10.0,North,21.9,32.2,N/A,,Clear,350,2014-02-11 13:53:00
5:53 AM,7.0,-0.9,70,30.27,10.0,North,10.4,-,N/A,,Clear,10,2014-02-11 14:53:00
6:53 AM,5.0,-2.0,73,30.30,10.0,NNW,10.4,-,N/A,,Clear,340,2014-02-11 15:53:00
7:53 AM,6.1,-2.0,69,30.30,10.0,North,26.5,33.4,N/A,,Clear,360,2014-02-11 16:53:00
8:53 AM,9.0,-0.9,64,30.27,10.0,North,23.0,31.1,N/A,,Clear,360,2014-02-11 17:53:00
9:53 AM,6.1,-2.0,69,30.29,10.0,NNW,16.1,20.7,N/A,,Scattered Clouds,340,2014-02-11 18:53:00
10:53 AM,7.0,-2.0,67,30.29,10.0,Variable,4.6,-,N/A,,Scattered Clouds,0,2014-02-11 19:53:00
11:53 AM,9.0,-2.9,59,30.27,10.0,North,5.8,-,N/A,,Scattered Clouds,350,2014-02-11 20:53:00
12:53 PM,7.0,-2.0,67,30.28,10.0,ESE,4.6,-,N/A,,Scattered Clouds,120,2014-02-11 21:53:00
1:53 PM,7.0,-0.0,73,30.27,10.0,East,3.5,-,N/A,,Scattered Clouds,100,2014-02-11 22:53:00
2:53 PM,7.0,-0.9,70,30.26,10.0,ESE,3.5,-,N/A,,Scattered Clouds,120,2014-02-11 23:53:00
3:53 PM,8.1,-0.9,67,30.25,10.0,Calm,Calm,-,N/A,,Mostly Cloudy,0,2014-02-12 00:53:00
4:53 PM,10.0,-5.1,51,30.22,10.0,NW,5.8,-,N/A,,Mostly Cloudy,320,2014-02-12 01:53:00
5:53 PM,8.1,-6.0,53,30.20,10.0,NNW,8.1,-,N/A,,Overcast,330,2014-02-12 02:53:00
6:53 PM,8.1,-7.1,50,30.19,10.0,NNW,12.7,-,N/A,,Overcast,340,2014-02-12 03:53:00
7:53 PM,8.1,-9.9,44,30.16,10.0,NNE,9.2,-,N/A,,Mostly Cloudy,20,2014-02-12 04:53:00
8:53 PM,5.0,-9.0,52,30.15,10.0,North,23.0,27.6,N/A,,Scattered Clouds,10,2014-02-12 05:53:00
9:53 PM,3.9,-8.0,58,30.13,10.0,North,13.8,-,N/A,,Partly Cloudy,360,2014-02-12 06:53:00
10:53 PM,1.9,-8.0,63,30.12,10.0,NNW,9.2,-,N/A,,Scattered Clouds,330,2014-02-12 07:53:00
11:53 PM,1.0,-9.0,63,30.11,10.0,Variable,3.5,-,N/A,,Partly Cloudy,0,2014-02-12 08:53:00